sensor_id;sensor_type;location;lat;lon;timestamp;P1;durP1;ratioP1;P2;durP2;ratioP2
13872;SDS011;7006;51.494;11.964;2022-10-03T00:02:32;10.87;;;3.70;;
13872;SDS011;7006;51.494;11.964;2022-10-03T00:05:22;13.00;;;3.80;;
13872;SDS011;7006;51.494;11.964;2022-10-03T00:08:02;8.40;;;3.57;;
13872;SDS011;7006;51.494;11.964;2022-10-03T00:10:34;8.90;;;4.17;;
13872;SDS011;7006;51.494;11.964;2022-10-03T00:13:10;9.77;;;3.87;;
13872;SDS011;7006;51.494;11.964;2022-10-03T00:15:41;8.60;;;3.40;;
13872;SDS011;7006;51.494;11.964;2022-10-03T00:18:14;9.07;;;3.73;;
13872;SDS011;7006;51.494;11.964;2022-10-03T00:20:47;15.93;;;4.20;;
13872;SDS011;7006;51.494;11.964;2022-10-03T00:23:20;9.87;;;4.17;;
13872;SDS011;7006;51.494;11.964;2022-10-03T00:25:54;15.20;;;4.17;;
13872;SDS011;7006;51.494;11.964;2022-10-03T00:28:49;11.63;;;4.47;;
13872;SDS011;7006;51.494;11.964;2022-10-03T00:31:24;8.20;;;3.70;;
13872;SDS011;7006;51.494;11.964;2022-10-03T00:34:03;9.63;;;3.83;;
13872;SDS011;7006;51.494;11.964;2022-10-03T00:36:36;8.10;;;3.67;;
13872;SDS011;7006;51.494;11.964;2022-10-03T00:39:21;17.50;;;4.20;;
13872;SDS011;7006;51.494;11.964;2022-10-03T00:42:07;9.70;;;4.10;;
13872;SDS011;7006;51.494;11.964;2022-10-03T00:45:17;14.90;;;4.93;;
13872;SDS011;7006;51.494;11.964;2022-10-03T00:48:13;11.37;;;4.13;;
13872;SDS011;7006;51.494;11.964;2022-10-03T00:51:08;9.60;;;4.00;;
13872;SDS011;7006;51.494;11.964;2022-10-03T00:53:46;16.70;;;4.00;;
13872;SDS011;7006;51.494;11.964;2022-10-03T00:56:23;8.03;;;3.83;;
13872;SDS011;7006;51.494;11.964;2022-10-03T00:59:02;10.90;;;4.00;;
13872;SDS011;7006;51.494;11.964;2022-10-03T01:01:43;15.07;;;4.13;;
13872;SDS011;7006;51.494;11.964;2022-10-03T01:04:14;10.07;;;3.47;;
13872;SDS011;7006;51.494;11.964;2022-10-03T01:06:54;12.03;;;4.00;;
13872;SDS011;7006;51.494;11.964;2022-10-03T01:09:29;9.27;;;3.30;;
13872;SDS011;7006;51.494;11.964;2022-10-03T01:12:08;9.40;;;3.73;;
13872;SDS011;7006;51.494;11.964;2022-10-03T01:14:49;11.73;;;3.43;;
13872;SDS011;7006;51.494;11.964;2022-10-03T01:17:26;7.63;;;3.03;;
13872;SDS011;7006;51.494;11.964;2022-10-03T01:26:10;7.77;;;3.30;;
13872;SDS011;7006;51.494;11.964;2022-10-03T01:28:47;17.50;;;4.10;;
13872;SDS011;7006;51.494;11.964;2022-10-03T01:31:36;8.37;;;3.10;;
13872;SDS011;7006;51.494;11.964;2022-10-03T01:34:09;12.80;;;3.73;;
13872;SDS011;7006;51.494;11.964;2022-10-03T01:36:41;8.17;;;3.00;;
13872;SDS011;7006;51.494;11.964;2022-10-03T01:39:14;9.30;;;2.90;;
13872;SDS011;7006;51.494;11.964;2022-10-03T01:41:49;7.40;;;3.57;;
13872;SDS011;7006;51.494;11.964;2022-10-03T01:44:19;10.60;;;3.73;;
13872;SDS011;7006;51.494;11.964;2022-10-03T01:46:49;14.67;;;3.13;;
13872;SDS011;7006;51.494;11.964;2022-10-03T01:49:19;10.83;;;3.17;;
13872;SDS011;7006;51.494;11.964;2022-10-03T01:51:51;14.77;;;3.10;;
13872;SDS011;7006;51.494;11.964;2022-10-03T01:54:26;7.90;;;3.03;;
13872;SDS011;7006;51.494;11.964;2022-10-03T01:56:59;13.93;;;3.93;;
13872;SDS011;7006;51.494;11.964;2022-10-03T01:59:32;7.90;;;3.77;;
13872;SDS011;7006;51.494;11.964;2022-10-03T02:02:05;11.53;;;3.00;;
13872;SDS011;7006;51.494;11.964;2022-10-03T02:04:35;8.87;;;3.80;;
13872;SDS011;7006;51.494;11.964;2022-10-03T02:07:10;10.23;;;3.07;;
13872;SDS011;7006;51.494;11.964;2022-10-03T02:09:47;11.57;;;3.50;;
13872;SDS011;7006;51.494;11.964;2022-10-03T02:12:25;8.50;;;3.37;;
13872;SDS011;7006;51.494;11.964;2022-10-03T02:14:58;10.93;;;3.23;;
13872;SDS011;7006;51.494;11.964;2022-10-03T02:17:27;9.07;;;3.27;;
13872;SDS011;7006;51.494;11.964;2022-10-03T02:19:59;12.13;;;4.47;;
13872;SDS011;7006;51.494;11.964;2022-10-03T02:22:32;14.00;;;3.67;;
13872;SDS011;7006;51.494;11.964;2022-10-03T02:25:07;8.60;;;3.30;;
13872;SDS011;7006;51.494;11.964;2022-10-03T02:27:58;8.83;;;3.47;;
13872;SDS011;7006;51.494;11.964;2022-10-03T02:30:40;8.53;;;3.23;;
13872;SDS011;7006;51.494;11.964;2022-10-03T02:33:35;8.43;;;3.30;;
13872;SDS011;7006;51.494;11.964;2022-10-03T02:36:19;6.10;;;3.20;;
13872;SDS011;7006;51.494;11.964;2022-10-03T02:39:31;11.87;;;3.77;;
13872;SDS011;7006;51.494;11.964;2022-10-03T02:51:09;12.03;;;3.80;;
13872;SDS011;7006;51.494;11.964;2022-10-03T02:56:50;8.40;;;3.17;;
13872;SDS011;7006;51.494;11.964;2022-10-03T03:02:31;9.10;;;3.13;;
13872;SDS011;7006;51.494;11.964;2022-10-03T03:05:20;9.97;;;4.13;;
13872;SDS011;7006;51.494;11.964;2022-10-03T03:07:57;13.70;;;4.10;;
13872;SDS011;7006;51.494;11.964;2022-10-03T03:19:38;11.50;;;2.87;;
13872;SDS011;7006;51.494;11.964;2022-10-03T03:22:15;14.57;;;3.90;;
13872;SDS011;7006;51.494;11.964;2022-10-03T03:24:54;10.03;;;3.70;;
13872;SDS011;7006;51.494;11.964;2022-10-03T03:27:32;9.47;;;4.30;;
13872;SDS011;7006;51.494;11.964;2022-10-03T03:30:05;11.63;;;3.80;;
13872;SDS011;7006;51.494;11.964;2022-10-03T03:32:38;9.20;;;3.70;;
13872;SDS011;7006;51.494;11.964;2022-10-03T03:35:13;15.67;;;3.20;;
13872;SDS011;7006;51.494;11.964;2022-10-03T03:37:49;16.07;;;4.00;;
13872;SDS011;7006;51.494;11.964;2022-10-03T03:40:26;13.73;;;4.40;;
13872;SDS011;7006;51.494;11.964;2022-10-03T03:43:03;13.33;;;4.20;;
13872;SDS011;7006;51.494;11.964;2022-10-03T03:45:43;14.03;;;4.70;;
13872;SDS011;7006;51.494;11.964;2022-10-03T03:48:17;10.43;;;3.80;;
13872;SDS011;7006;51.494;11.964;2022-10-03T03:51:09;12.23;;;4.20;;
13872;SDS011;7006;51.494;11.964;2022-10-03T03:53:53;10.23;;;4.30;;
13872;SDS011;7006;51.494;11.964;2022-10-03T03:56:31;17.53;;;4.07;;
13872;SDS011;7006;51.494;11.964;2022-10-03T03:59:08;16.07;;;4.07;;
13872;SDS011;7006;51.494;11.964;2022-10-03T04:01:47;11.73;;;4.60;;
13872;SDS011;7006;51.494;11.964;2022-10-03T04:04:31;13.67;;;4.30;;
13872;SDS011;7006;51.494;11.964;2022-10-03T04:07:07;7.97;;;3.70;;
13872;SDS011;7006;51.494;11.964;2022-10-03T04:09:52;8.30;;;4.20;;
13872;SDS011;7006;51.494;11.964;2022-10-03T04:12:36;8.80;;;3.90;;
13872;SDS011;7006;51.494;11.964;2022-10-03T04:15:26;13.00;;;4.23;;
13872;SDS011;7006;51.494;11.964;2022-10-03T04:18:10;10.00;;;4.47;;
13872;SDS011;7006;51.494;11.964;2022-10-03T04:21:18;9.23;;;4.03;;
13872;SDS011;7006;51.494;11.964;2022-10-03T04:23:55;9.80;;;3.43;;
13872;SDS011;7006;51.494;11.964;2022-10-03T04:26:34;8.17;;;3.50;;
13872;SDS011;7006;51.494;11.964;2022-10-03T04:32:08;7.57;;;3.60;;
13872;SDS011;7006;51.494;11.964;2022-10-03T04:34:44;6.37;;;3.70;;
13872;SDS011;7006;51.494;11.964;2022-10-03T04:37:20;13.70;;;3.83;;
13872;SDS011;7006;51.494;11.964;2022-10-03T04:39:50;13.17;;;3.37;;
13872;SDS011;7006;51.494;11.964;2022-10-03T04:42:26;10.07;;;3.90;;
13872;SDS011;7006;51.494;11.964;2022-10-03T04:47:58;8.70;;;4.33;;
13872;SDS011;7006;51.494;11.964;2022-10-03T04:50:33;11.47;;;4.13;;
13872;SDS011;7006;51.494;11.964;2022-10-03T04:53:09;10.67;;;4.63;;
13872;SDS011;7006;51.494;11.964;2022-10-03T04:55:44;8.30;;;4.13;;
13872;SDS011;7006;51.494;11.964;2022-10-03T04:58:16;10.90;;;3.70;;
13872;SDS011;7006;51.494;11.964;2022-10-03T05:00:53;15.37;;;3.93;;
13872;SDS011;7006;51.494;11.964;2022-10-03T05:03:27;13.57;;;3.90;;
13872;SDS011;7006;51.494;11.964;2022-10-03T05:05:59;11.93;;;3.97;;
13872;SDS011;7006;51.494;11.964;2022-10-03T05:08:34;9.70;;;4.53;;
13872;SDS011;7006;51.494;11.964;2022-10-03T05:11:10;10.67;;;4.83;;
13872;SDS011;7006;51.494;11.964;2022-10-03T05:13:55;13.10;;;3.87;;
13872;SDS011;7006;51.494;11.964;2022-10-03T05:16:29;9.90;;;4.60;;
13872;SDS011;7006;51.494;11.964;2022-10-03T05:19:07;12.07;;;4.80;;
13872;SDS011;7006;51.494;11.964;2022-10-03T05:21:46;14.40;;;3.97;;
13872;SDS011;7006;51.494;11.964;2022-10-03T05:24:15;8.43;;;4.07;;
13872;SDS011;7006;51.494;11.964;2022-10-03T05:26:48;11.07;;;4.17;;
13872;SDS011;7006;51.494;11.964;2022-10-03T05:29:22;10.23;;;5.43;;
13872;SDS011;7006;51.494;11.964;2022-10-03T05:31:54;12.63;;;4.27;;
13872;SDS011;7006;51.494;11.964;2022-10-03T05:34:32;8.10;;;4.23;;
13872;SDS011;7006;51.494;11.964;2022-10-03T05:37:19;8.60;;;4.27;;
13872;SDS011;7006;51.494;11.964;2022-10-03T05:39:59;16.20;;;5.10;;
13872;SDS011;7006;51.494;11.964;2022-10-03T05:42:35;16.00;;;5.00;;
13872;SDS011;7006;51.494;11.964;2022-10-03T05:45:07;14.17;;;4.80;;
13872;SDS011;7006;51.494;11.964;2022-10-03T05:47:47;9.33;;;4.20;;
13872;SDS011;7006;51.494;11.964;2022-10-03T05:56:18;7.10;;;4.60;;
13872;SDS011;7006;51.494;11.964;2022-10-03T06:02:22;11.60;;;4.33;;
13872;SDS011;7006;51.494;11.964;2022-10-03T06:05:00;11.77;;;3.83;;
13872;SDS011;7006;51.494;11.964;2022-10-03T06:07:40;11.30;;;4.70;;
13872;SDS011;7006;51.494;11.964;2022-10-03T06:10:17;10.43;;;4.70;;
13872;SDS011;7006;51.494;11.964;2022-10-03T06:13:09;7.07;;;3.83;;
13872;SDS011;7006;51.494;11.964;2022-10-03T06:15:44;11.63;;;4.70;;
13872;SDS011;7006;51.494;11.964;2022-10-03T06:21:25;12.47;;;4.80;;
13872;SDS011;7006;51.494;11.964;2022-10-03T06:24:12;12.63;;;5.00;;
13872;SDS011;7006;51.494;11.964;2022-10-03T06:29:52;17.30;;;4.33;;
13872;SDS011;7006;51.494;11.964;2022-10-03T06:38:39;14.03;;;4.87;;
13872;SDS011;7006;51.494;11.964;2022-10-03T06:41:29;11.00;;;5.03;;
13872;SDS011;7006;51.494;11.964;2022-10-03T06:44:10;9.57;;;4.30;;
13872;SDS011;7006;51.494;11.964;2022-10-03T06:46:53;12.80;;;4.03;;
13872;SDS011;7006;51.494;11.964;2022-10-03T06:49:31;12.03;;;4.33;;
13872;SDS011;7006;51.494;11.964;2022-10-03T06:52:13;9.60;;;4.47;;
13872;SDS011;7006;51.494;11.964;2022-10-03T06:55:10;10.33;;;4.70;;
13872;SDS011;7006;51.494;11.964;2022-10-03T07:00:54;15.63;;;5.33;;
13872;SDS011;7006;51.494;11.964;2022-10-03T07:03:39;12.70;;;6.37;;
13872;SDS011;7006;51.494;11.964;2022-10-03T07:06:27;12.77;;;6.07;;
13872;SDS011;7006;51.494;11.964;2022-10-03T07:09:10;12.27;;;6.33;;
13872;SDS011;7006;51.494;11.964;2022-10-03T07:11:59;10.93;;;6.33;;
13872;SDS011;7006;51.494;11.964;2022-10-03T07:14:53;15.30;;;6.00;;
13872;SDS011;7006;51.494;11.964;2022-10-03T07:17:32;11.63;;;5.90;;
13872;SDS011;7006;51.494;11.964;2022-10-03T07:23:03;13.00;;;5.40;;
13872;SDS011;7006;51.494;11.964;2022-10-03T07:29:17;10.60;;;5.50;;
13872;SDS011;7006;51.494;11.964;2022-10-03T07:35:02;11.30;;;4.83;;
13872;SDS011;7006;51.494;11.964;2022-10-03T07:37:38;14.07;;;4.30;;
13872;SDS011;7006;51.494;11.964;2022-10-03T07:49:53;13.00;;;4.83;;
13872;SDS011;7006;51.494;11.964;2022-10-03T07:52:42;10.07;;;4.10;;
13872;SDS011;7006;51.494;11.964;2022-10-03T07:55:22;8.60;;;4.10;;
13872;SDS011;7006;51.494;11.964;2022-10-03T07:57:57;17.87;;;3.80;;
13872;SDS011;7006;51.494;11.964;2022-10-03T08:00:55;7.00;;;3.90;;
13872;SDS011;7006;51.494;11.964;2022-10-03T08:06:37;9.13;;;3.73;;
13872;SDS011;7006;51.494;11.964;2022-10-03T08:09:21;9.93;;;4.20;;
13872;SDS011;7006;51.494;11.964;2022-10-03T08:15:05;10.17;;;3.60;;
13872;SDS011;7006;51.494;11.964;2022-10-03T08:17:53;12.60;;;4.83;;
13872;SDS011;7006;51.494;11.964;2022-10-03T08:20:37;10.00;;;4.10;;
13872;SDS011;7006;51.494;11.964;2022-10-03T08:23:14;10.70;;;3.90;;
13872;SDS011;7006;51.494;11.964;2022-10-03T08:26:02;11.40;;;4.30;;
13872;SDS011;7006;51.494;11.964;2022-10-03T08:28:39;10.73;;;4.10;;
13872;SDS011;7006;51.494;11.964;2022-10-03T08:31:19;9.00;;;3.90;;
13872;SDS011;7006;51.494;11.964;2022-10-03T08:33:59;11.07;;;4.70;;
13872;SDS011;7006;51.494;11.964;2022-10-03T08:36:42;8.63;;;3.90;;
13872;SDS011;7006;51.494;11.964;2022-10-03T08:39:28;9.30;;;3.73;;
13872;SDS011;7006;51.494;11.964;2022-10-03T08:42:20;10.93;;;4.30;;
13872;SDS011;7006;51.494;11.964;2022-10-03T08:51:04;6.83;;;3.73;;
13872;SDS011;7006;51.494;11.964;2022-10-03T08:53:55;8.53;;;3.73;;
13872;SDS011;7006;51.494;11.964;2022-10-03T08:56:34;14.20;;;3.90;;
13872;SDS011;7006;51.494;11.964;2022-10-03T08:59:15;10.87;;;3.87;;
13872;SDS011;7006;51.494;11.964;2022-10-03T09:02:10;9.90;;;4.20;;
13872;SDS011;7006;51.494;11.964;2022-10-03T09:05:17;7.90;;;4.17;;
13872;SDS011;7006;51.494;11.964;2022-10-03T09:08:05;8.10;;;4.50;;
13872;SDS011;7006;51.494;11.964;2022-10-03T09:11:11;9.50;;;4.47;;
13872;SDS011;7006;51.494;11.964;2022-10-03T09:20:09;9.47;;;4.13;;
13872;SDS011;7006;51.494;11.964;2022-10-03T09:22:59;8.17;;;4.67;;
13872;SDS011;7006;51.494;11.964;2022-10-03T09:25:50;6.10;;;3.70;;
13872;SDS011;7006;51.494;11.964;2022-10-03T09:28:37;11.60;;;4.50;;
13872;SDS011;7006;51.494;11.964;2022-10-03T09:31:17;7.20;;;4.00;;
13872;SDS011;7006;51.494;11.964;2022-10-03T09:34:03;9.83;;;4.57;;
13872;SDS011;7006;51.494;11.964;2022-10-03T09:36:44;7.73;;;4.00;;
13872;SDS011;7006;51.494;11.964;2022-10-03T09:39:53;7.73;;;3.90;;
13872;SDS011;7006;51.494;11.964;2022-10-03T09:42:43;10.07;;;3.83;;
13872;SDS011;7006;51.494;11.964;2022-10-03T09:45:35;8.37;;;3.83;;
13872;SDS011;7006;51.494;11.964;2022-10-03T09:48:19;7.87;;;4.10;;
13872;SDS011;7006;51.494;11.964;2022-10-03T09:51:14;10.23;;;4.10;;
13872;SDS011;7006;51.494;11.964;2022-10-03T09:56:51;6.17;;;3.60;;
13872;SDS011;7006;51.494;11.964;2022-10-03T09:59:38;9.70;;;3.80;;
13872;SDS011;7006;51.494;11.964;2022-10-03T10:02:17;10.63;;;3.50;;
13872;SDS011;7006;51.494;11.964;2022-10-03T10:05:03;10.53;;;3.67;;
13872;SDS011;7006;51.494;11.964;2022-10-03T10:19:47;8.30;;;2.90;;
13872;SDS011;7006;51.494;11.964;2022-10-03T10:25:54;6.57;;;2.63;;
13872;SDS011;7006;51.494;11.964;2022-10-03T10:31:53;8.10;;;2.17;;
13872;SDS011;7006;51.494;11.964;2022-10-03T10:47:11;5.90;;;2.33;;
13872;SDS011;7006;51.494;11.964;2022-10-03T10:52:44;10.20;;;3.17;;
13872;SDS011;7006;51.494;11.964;2022-10-03T10:55:35;6.53;;;2.80;;
13872;SDS011;7006;51.494;11.964;2022-10-03T10:58:25;9.90;;;3.63;;
13872;SDS011;7006;51.494;11.964;2022-10-03T11:01:41;7.10;;;2.27;;
13872;SDS011;7006;51.494;11.964;2022-10-03T11:07:47;5.60;;;2.30;;
13872;SDS011;7006;51.494;11.964;2022-10-03T11:10:34;6.43;;;2.00;;
13872;SDS011;7006;51.494;11.964;2022-10-03T11:22:30;8.47;;;2.00;;
13872;SDS011;7006;51.494;11.964;2022-10-03T11:25:24;6.17;;;2.00;;
13872;SDS011;7006;51.494;11.964;2022-10-03T11:28:30;4.50;;;1.80;;
13872;SDS011;7006;51.494;11.964;2022-10-03T11:31:38;5.43;;;1.90;;
13872;SDS011;7006;51.494;11.964;2022-10-03T11:40:12;6.70;;;2.37;;
13872;SDS011;7006;51.494;11.964;2022-10-03T11:42:49;7.83;;;3.57;;
13872;SDS011;7006;51.494;11.964;2022-10-03T11:45:22;9.67;;;2.90;;
13872;SDS011;7006;51.494;11.964;2022-10-03T11:47:54;5.77;;;2.43;;
13872;SDS011;7006;51.494;11.964;2022-10-03T11:50:27;6.13;;;2.73;;
13872;SDS011;7006;51.494;11.964;2022-10-03T11:53:00;6.37;;;2.50;;
13872;SDS011;7006;51.494;11.964;2022-10-03T11:55:36;5.63;;;2.20;;
13872;SDS011;7006;51.494;11.964;2022-10-03T11:58:10;7.43;;;3.07;;
13872;SDS011;7006;51.494;11.964;2022-10-03T12:00:45;9.20;;;2.70;;
13872;SDS011;7006;51.494;11.964;2022-10-03T12:03:16;7.30;;;2.90;;
13872;SDS011;7006;51.494;11.964;2022-10-03T12:05:48;6.50;;;2.60;;
13872;SDS011;7006;51.494;11.964;2022-10-03T12:08:37;5.50;;;2.80;;
13872;SDS011;7006;51.494;11.964;2022-10-03T12:11:22;9.13;;;2.60;;
13872;SDS011;7006;51.494;11.964;2022-10-03T12:13:59;6.50;;;2.47;;
13872;SDS011;7006;51.494;11.964;2022-10-03T12:16:35;5.77;;;2.10;;
13872;SDS011;7006;51.494;11.964;2022-10-03T12:19:14;8.57;;;3.00;;
13872;SDS011;7006;51.494;11.964;2022-10-03T12:21:49;6.17;;;2.63;;
13872;SDS011;7006;51.494;11.964;2022-10-03T12:24:23;7.30;;;2.77;;
13872;SDS011;7006;51.494;11.964;2022-10-03T12:26:53;6.27;;;2.70;;
13872;SDS011;7006;51.494;11.964;2022-10-03T12:29:24;5.03;;;2.60;;
13872;SDS011;7006;51.494;11.964;2022-10-03T12:31:56;6.90;;;2.97;;
13872;SDS011;7006;51.494;11.964;2022-10-03T12:34:39;6.27;;;2.60;;
13872;SDS011;7006;51.494;11.964;2022-10-03T12:37:24;10.23;;;3.20;;
13872;SDS011;7006;51.494;11.964;2022-10-03T12:40:01;6.20;;;3.20;;
13872;SDS011;7006;51.494;11.964;2022-10-03T12:42:32;6.67;;;2.60;;
13872;SDS011;7006;51.494;11.964;2022-10-03T12:45:01;6.60;;;2.60;;
13872;SDS011;7006;51.494;11.964;2022-10-03T12:47:31;7.90;;;2.73;;
13872;SDS011;7006;51.494;11.964;2022-10-03T12:50:11;4.93;;;2.43;;
13872;SDS011;7006;51.494;11.964;2022-10-03T12:52:49;7.67;;;3.03;;
13872;SDS011;7006;51.494;11.964;2022-10-03T12:55:23;4.97;;;2.20;;
13872;SDS011;7006;51.494;11.964;2022-10-03T12:57:59;6.07;;;2.00;;
13872;SDS011;7006;51.494;11.964;2022-10-03T13:00:31;5.10;;;2.20;;
13872;SDS011;7006;51.494;11.964;2022-10-03T13:03:17;6.10;;;2.30;;
13872;SDS011;7006;51.494;11.964;2022-10-03T13:05:50;6.50;;;2.20;;
13872;SDS011;7006;51.494;11.964;2022-10-03T13:08:39;4.60;;;2.47;;
13872;SDS011;7006;51.494;11.964;2022-10-03T13:11:12;4.50;;;2.27;;
13872;SDS011;7006;51.494;11.964;2022-10-03T13:13:52;4.23;;;2.37;;
13872;SDS011;7006;51.494;11.964;2022-10-03T13:16:27;7.80;;;3.47;;
13872;SDS011;7006;51.494;11.964;2022-10-03T13:18:57;6.80;;;3.23;;
13872;SDS011;7006;51.494;11.964;2022-10-03T13:21:28;3.60;;;2.23;;
13872;SDS011;7006;51.494;11.964;2022-10-03T13:24:06;4.23;;;2.33;;
13872;SDS011;7006;51.494;11.964;2022-10-03T13:26:42;9.03;;;3.70;;
13872;SDS011;7006;51.494;11.964;2022-10-03T13:29:20;7.47;;;2.57;;
13872;SDS011;7006;51.494;11.964;2022-10-03T13:32:04;9.30;;;2.73;;
13872;SDS011;7006;51.494;11.964;2022-10-03T13:34:36;5.90;;;2.60;;
13872;SDS011;7006;51.494;11.964;2022-10-03T13:37:11;5.77;;;2.83;;
13872;SDS011;7006;51.494;11.964;2022-10-03T13:39:44;8.63;;;3.20;;
13872;SDS011;7006;51.494;11.964;2022-10-03T13:42:14;7.40;;;1.77;;
13872;SDS011;7006;51.494;11.964;2022-10-03T13:44:46;7.10;;;1.87;;
13872;SDS011;7006;51.494;11.964;2022-10-03T13:47:26;5.00;;;2.13;;
13872;SDS011;7006;51.494;11.964;2022-10-03T13:50:12;4.77;;;2.50;;
13872;SDS011;7006;51.494;11.964;2022-10-03T13:52:41;7.13;;;2.23;;
13872;SDS011;7006;51.494;11.964;2022-10-03T13:55:15;4.90;;;1.97;;
13872;SDS011;7006;51.494;11.964;2022-10-03T13:58:00;5.60;;;2.10;;
13872;SDS011;7006;51.494;11.964;2022-10-03T14:00:43;6.70;;;3.40;;
13872;SDS011;7006;51.494;11.964;2022-10-03T14:03:18;5.73;;;2.27;;
13872;SDS011;7006;51.494;11.964;2022-10-03T14:05:56;5.90;;;2.80;;
13872;SDS011;7006;51.494;11.964;2022-10-03T14:08:50;6.90;;;2.60;;
13872;SDS011;7006;51.494;11.964;2022-10-03T14:11:25;6.33;;;2.57;;
13872;SDS011;7006;51.494;11.964;2022-10-03T14:14:03;10.23;;;2.27;;
13872;SDS011;7006;51.494;11.964;2022-10-03T14:16:54;3.67;;;1.40;;
13872;SDS011;7006;51.494;11.964;2022-10-03T14:19:26;3.23;;;1.40;;
13872;SDS011;7006;51.494;11.964;2022-10-03T14:22:00;4.97;;;1.63;;
13872;SDS011;7006;51.494;11.964;2022-10-03T14:24:35;3.00;;;1.30;;
13872;SDS011;7006;51.494;11.964;2022-10-03T14:27:13;3.83;;;1.63;;
13872;SDS011;7006;51.494;11.964;2022-10-03T14:29:57;3.40;;;1.20;;
13872;SDS011;7006;51.494;11.964;2022-10-03T14:32:29;3.77;;;1.30;;
13872;SDS011;7006;51.494;11.964;2022-10-03T14:35:03;3.77;;;1.20;;
13872;SDS011;7006;51.494;11.964;2022-10-03T14:37:36;4.30;;;2.00;;
13872;SDS011;7006;51.494;11.964;2022-10-03T14:40:11;7.67;;;1.60;;
13872;SDS011;7006;51.494;11.964;2022-10-03T14:42:53;5.67;;;1.33;;
13872;SDS011;7006;51.494;11.964;2022-10-03T14:45:25;4.13;;;1.43;;
13872;SDS011;7006;51.494;11.964;2022-10-03T14:47:56;2.30;;;1.30;;
13872;SDS011;7006;51.494;11.964;2022-10-03T14:50:25;5.93;;;2.05;;
13872;SDS011;7006;51.494;11.964;2022-10-03T14:52:55;3.80;;;1.70;;
13872;SDS011;7006;51.494;11.964;2022-10-03T14:55:27;5.40;;;1.77;;
13872;SDS011;7006;51.494;11.964;2022-10-03T14:57:58;6.37;;;1.80;;
13872;SDS011;7006;51.494;11.964;2022-10-03T15:00:32;5.57;;;1.83;;
13872;SDS011;7006;51.494;11.964;2022-10-03T15:03:17;6.03;;;1.37;;
13872;SDS011;7006;51.494;11.964;2022-10-03T15:06:03;5.70;;;2.00;;
13872;SDS011;7006;51.494;11.964;2022-10-03T15:08:45;4.80;;;1.47;;
13872;SDS011;7006;51.494;11.964;2022-10-03T15:11:13;8.57;;;2.67;;
13872;SDS011;7006;51.494;11.964;2022-10-03T15:13:41;4.97;;;1.83;;
13872;SDS011;7006;51.494;11.964;2022-10-03T15:16:12;7.83;;;2.10;;
13872;SDS011;7006;51.494;11.964;2022-10-03T15:18:41;8.27;;;1.50;;
13872;SDS011;7006;51.494;11.964;2022-10-03T15:21:15;6.17;;;2.93;;
13872;SDS011;7006;51.494;11.964;2022-10-03T15:23:42;7.80;;;4.40;;
13872;SDS011;7006;51.494;11.964;2022-10-03T15:26:12;4.00;;;2.30;;
13872;SDS011;7006;51.494;11.964;2022-10-03T15:28:43;10.40;;;3.27;;
13872;SDS011;7006;51.494;11.964;2022-10-03T15:31:21;6.70;;;2.33;;
13872;SDS011;7006;51.494;11.964;2022-10-03T15:33:56;6.80;;;2.13;;
13872;SDS011;7006;51.494;11.964;2022-10-03T15:36:26;7.13;;;2.43;;
13872;SDS011;7006;51.494;11.964;2022-10-03T15:38:56;4.87;;;2.43;;
13872;SDS011;7006;51.494;11.964;2022-10-03T15:41:26;5.90;;;2.30;;
13872;SDS011;7006;51.494;11.964;2022-10-03T15:43:54;3.50;;;1.80;;
13872;SDS011;7006;51.494;11.964;2022-10-03T15:46:28;5.57;;;2.20;;
13872;SDS011;7006;51.494;11.964;2022-10-03T15:48:58;7.30;;;2.20;;
13872;SDS011;7006;51.494;11.964;2022-10-03T15:51:26;7.00;;;3.53;;
13872;SDS011;7006;51.494;11.964;2022-10-03T15:53:55;8.10;;;3.10;;
13872;SDS011;7006;51.494;11.964;2022-10-03T15:56:24;7.23;;;3.20;;
13872;SDS011;7006;51.494;11.964;2022-10-03T15:58:53;6.03;;;3.00;;
13872;SDS011;7006;51.494;11.964;2022-10-03T16:01:21;7.30;;;3.13;;
13872;SDS011;7006;51.494;11.964;2022-10-03T16:03:51;6.87;;;4.33;;
13872;SDS011;7006;51.494;11.964;2022-10-03T16:06:21;8.23;;;3.93;;
13872;SDS011;7006;51.494;11.964;2022-10-03T16:08:54;7.27;;;4.50;;
13872;SDS011;7006;51.494;11.964;2022-10-03T16:11:23;6.67;;;3.40;;
13872;SDS011;7006;51.494;11.964;2022-10-03T16:13:53;7.30;;;3.17;;
13872;SDS011;7006;51.494;11.964;2022-10-03T16:16:28;6.67;;;3.10;;
13872;SDS011;7006;51.494;11.964;2022-10-03T16:19:18;5.53;;;3.57;;
13872;SDS011;7006;51.494;11.964;2022-10-03T16:21:48;4.93;;;2.30;;
13872;SDS011;7006;51.494;11.964;2022-10-03T16:24:26;5.43;;;4.03;;
13872;SDS011;7006;51.494;11.964;2022-10-03T16:27:02;5.07;;;3.57;;
13872;SDS011;7006;51.494;11.964;2022-10-03T16:29:33;8.50;;;3.93;;
13872;SDS011;7006;51.494;11.964;2022-10-03T16:32:02;6.40;;;4.60;;
13872;SDS011;7006;51.494;11.964;2022-10-03T16:34:31;6.83;;;4.77;;
13872;SDS011;7006;51.494;11.964;2022-10-03T16:36:59;7.77;;;4.47;;
13872;SDS011;7006;51.494;11.964;2022-10-03T16:39:27;9.97;;;4.40;;
13872;SDS011;7006;51.494;11.964;2022-10-03T16:41:55;5.27;;;3.30;;
13872;SDS011;7006;51.494;11.964;2022-10-03T16:44:23;9.57;;;4.20;;
13872;SDS011;7006;51.494;11.964;2022-10-03T16:46:52;7.20;;;5.60;;
13872;SDS011;7006;51.494;11.964;2022-10-03T16:49:37;10.47;;;4.63;;
13872;SDS011;7006;51.494;11.964;2022-10-03T16:52:28;3.80;;;2.93;;
13872;SDS011;7006;51.494;11.964;2022-10-03T16:54:58;5.97;;;3.07;;
13872;SDS011;7006;51.494;11.964;2022-10-03T16:57:28;5.33;;;3.50;;
13872;SDS011;7006;51.494;11.964;2022-10-03T16:59:58;6.50;;;3.83;;
13872;SDS011;7006;51.494;11.964;2022-10-03T17:02:32;8.93;;;3.80;;
13872;SDS011;7006;51.494;11.964;2022-10-03T17:05:01;10.20;;;3.43;;
13872;SDS011;7006;51.494;11.964;2022-10-03T17:07:34;9.43;;;4.40;;
13872;SDS011;7006;51.494;11.964;2022-10-03T17:10:03;6.20;;;2.67;;
13872;SDS011;7006;51.494;11.964;2022-10-03T17:12:52;6.30;;;2.50;;
13872;SDS011;7006;51.494;11.964;2022-10-03T17:15:20;4.33;;;2.60;;
13872;SDS011;7006;51.494;11.964;2022-10-03T17:17:48;5.00;;;2.40;;
13872;SDS011;7006;51.494;11.964;2022-10-03T17:20:21;3.93;;;2.70;;
13872;SDS011;7006;51.494;11.964;2022-10-03T17:23:00;4.23;;;2.67;;
13872;SDS011;7006;51.494;11.964;2022-10-03T17:25:33;3.70;;;2.20;;
13872;SDS011;7006;51.494;11.964;2022-10-03T17:28:03;6.63;;;2.60;;
13872;SDS011;7006;51.494;11.964;2022-10-03T17:30:31;5.67;;;3.73;;
13872;SDS011;7006;51.494;11.964;2022-10-03T17:33:01;7.47;;;3.10;;
13872;SDS011;7006;51.494;11.964;2022-10-03T17:35:34;6.50;;;4.17;;
13872;SDS011;7006;51.494;11.964;2022-10-03T17:38:12;6.60;;;3.27;;
13872;SDS011;7006;51.494;11.964;2022-10-03T17:40:48;5.47;;;2.70;;
13872;SDS011;7006;51.494;11.964;2022-10-03T17:43:18;6.33;;;4.50;;
13872;SDS011;7006;51.494;11.964;2022-10-03T17:45:50;7.93;;;4.17;;
13872;SDS011;7006;51.494;11.964;2022-10-03T17:48:22;6.50;;;2.97;;
13872;SDS011;7006;51.494;11.964;2022-10-03T17:50:53;5.90;;;2.73;;
13872;SDS011;7006;51.494;11.964;2022-10-03T17:53:25;5.33;;;2.73;;
13872;SDS011;7006;51.494;11.964;2022-10-03T17:55:54;8.30;;;3.80;;
13872;SDS011;7006;51.494;11.964;2022-10-03T17:58:22;6.43;;;3.63;;
13872;SDS011;7006;51.494;11.964;2022-10-03T18:00:54;9.77;;;4.83;;
13872;SDS011;7006;51.494;11.964;2022-10-03T18:03:26;11.30;;;3.60;;
13872;SDS011;7006;51.494;11.964;2022-10-03T18:05:57;8.83;;;3.80;;
13872;SDS011;7006;51.494;11.964;2022-10-03T18:08:26;9.67;;;4.00;;
13872;SDS011;7006;51.494;11.964;2022-10-03T18:10:55;12.43;;;7.27;;
13872;SDS011;7006;51.494;11.964;2022-10-03T18:13:26;10.23;;;5.90;;
13872;SDS011;7006;51.494;11.964;2022-10-03T18:16:01;8.03;;;5.50;;
13872;SDS011;7006;51.494;11.964;2022-10-03T18:18:44;6.60;;;4.80;;
13872;SDS011;7006;51.494;11.964;2022-10-03T18:21:42;7.27;;;4.43;;
13872;SDS011;7006;51.494;11.964;2022-10-03T18:24:35;7.03;;;4.10;;